Time;durP1;ratioP1;P1;durP2;ratioP2;P2;SDS_P1;SDS_P2;PMS_P1;PMS_P2;Temp;Humidity;BMP_temperature;BMP_pressure;BME280_temperature;BME280_humidity;BME280_pressure;Samples;Min_cycle;Max_cycle;Signal;HPM_P1;HPM_P2
2023/08/09 00:01:43;;;;;;;2.22;1.27;;;;;;;;;;5027577;28;20316;-60
2023/08/09 00:04:09;;;;;;;1.67;1.30;;;;;;;;;;5028953;28;20212;-60
2023/08/09 00:06:34;;;;;;;2.33;1.45;;;;;;;;;;5030053;28;20678;-60
2023/08/09 00:09:00;;;;;;;1.85;1.30;;;;;;;;;;5028747;28;20265;-60
2023/08/09 00:11:26;;;;;;;2.08;1.42;;;;;;;;;;5027786;28;20249;-60
2023/08/09 00:13:51;;;;;;;2.42;1.65;;;;;;;;;;5029935;28;20298;-60
2023/08/09 00:16:16;;;;;;;2.85;1.70;;;;;;;;;;5028221;28;20370;-60
2023/08/09 00:18:42;;;;;;;3.45;1.50;;;;;;;;;;5027518;28;20292;-60
2023/08/09 00:21:07;;;;;;;2.35;1.40;;;;;;;;;;5027799;28;20615;-60
2023/08/09 00:23:33;;;;;;;4.15;1.30;;;;;;;;;;5029487;28;20663;-60
2023/08/09 00:25:58;;;;;;;2.08;1.40;;;;;;;;;;5027994;28;20211;-60
2023/08/09 00:28:25;;;;;;;2.45;1.70;;;;;;;;;;5026994;28;20215;-60
2023/08/09 00:30:51;;;;;;;3.80;1.42;;;;;;;;;;5029718;28;20216;-60
2023/08/09 00:33:16;;;;;;;3.05;1.50;;;;;;;;;;5028511;28;20238;-60
2023/08/09 00:35:41;;;;;;;4.15;1.58;;;;;;;;;;5026615;28;20310;-60
2023/08/09 00:38:07;;;;;;;1.95;1.50;;;;;;;;;;5028223;28;20254;-60
2023/08/09 00:40:32;;;;;;;3.13;1.90;;;;;;;;;;5029396;28;20294;-60
2023/08/09 00:42:57;;;;;;;2.50;1.50;;;;;;;;;;5026201;28;20215;-60
2023/08/09 00:45:23;;;;;;;2.95;1.65;;;;;;;;;;5028308;28;20698;-60
2023/08/09 00:47:48;;;;;;;3.95;1.73;;;;;;;;;;5027997;28;20353;-60
2023/08/09 00:50:13;;;;;;;2.60;1.80;;;;;;;;;;5027021;28;20668;-60
2023/08/09 00:52:39;;;;;;;3.40;1.85;;;;;;;;;;5027729;28;20219;-60
2023/08/09 00:55:04;;;;;;;2.05;1.63;;;;;;;;;;5028960;28;20207;-60
2023/08/09 00:57:30;;;;;;;2.85;1.63;;;;;;;;;;5026616;28;20322;-60
2023/08/09 00:59:55;;;;;;;2.70;1.85;;;;;;;;;;5025167;28;20235;-60
2023/08/09 01:02:20;;;;;;;7.63;2.33;;;;;;;;;;5028218;28;20223;-60
2023/08/09 01:04:46;;;;;;;4.13;2.00;;;;;;;;;;5028466;28;20220;-60
2023/08/09 01:07:11;;;;;;;3.58;2.00;;;;;;;;;;5026501;28;20254;-60
2023/08/09 01:09:45;;;;;;;3.92;2.20;;;;;;;;;;5028620;28;20311;-60
2023/08/09 01:12:11;;;;;;;3.65;2.33;;;;;;;;;;5026236;28;20222;-60
2023/08/09 01:14:39;;;;;;;4.55;2.05;;;;;;;;;;5028361;28;20732;-60
2023/08/09 01:17:04;;;;;;;4.22;2.30;;;;;;;;;;5026095;28;20227;-60
2023/08/09 01:19:34;;;;;;;3.40;2.60;;;;;;;;;;5027034;28;20208;-60
2023/08/09 01:21:59;;;;;;;4.45;2.60;;;;;;;;;;5028415;28;20709;-60
2023/08/09 01:24:25;;;;;;;4.00;3.10;;;;;;;;;;5024907;28;20216;-60
2023/08/09 01:26:50;;;;;;;6.35;4.32;;;;;;;;;;5027312;28;20462;-60
2023/08/09 01:29:15;;;;;;;6.45;5.20;;;;;;;;;;5028075;28;20255;-60
2023/08/09 01:31:40;;;;;;;9.55;6.88;;;;;;;;;;5026834;28;20216;-60
2023/08/09 01:34:06;;;;;;;9.38;7.50;;;;;;;;;;5026508;28;20896;-60
2023/08/09 01:36:33;;;;;;;11.98;8.73;;;;;;;;;;5027061;28;20569;-60
2023/08/09 01:39:00;;;;;;;11.00;8.95;;;;;;;;;;5027922;28;20391;-60
2023/08/09 01:41:26;;;;;;;11.50;9.68;;;;;;;;;;5017257;28;20211;-60
2023/08/09 01:43:52;;;;;;;13.00;10.52;;;;;;;;;;5028415;28;20216;-60
2023/08/09 01:46:17;;;;;;;14.65;11.07;;;;;;;;;;5025826;28;20284;-60
2023/08/09 01:48:42;;;;;;;15.70;11.95;;;;;;;;;;5026470;28;20207;-60
2023/08/09 01:51:07;;;;;;;16.60;13.00;;;;;;;;;;5027308;28;20555;-60
2023/08/09 01:53:33;;;;;;;15.57;12.63;;;;;;;;;;5027612;28;20667;-60
2023/08/09 01:55:58;;;;;;;13.98;11.90;;;;;;;;;;5028024;28;20581;-60
2023/08/09 01:58:24;;;;;;;16.75;12.93;;;;;;;;;;5025646;28;20559;-60
2023/08/09 02:00:49;;;;;;;15.60;12.18;;;;;;;;;;5027521;28;20214;-60
2023/08/09 02:03:14;;;;;;;16.02;13.10;;;;;;;;;;5027878;28;20234;-60
2023/08/09 02:05:40;;;;;;;15.10;12.88;;;;;;;;;;5025999;28;20212;-60
2023/08/09 02:08:05;;;;;;;14.13;11.43;;;;;;;;;;5026309;28;20211;-60
2023/08/09 02:10:30;;;;;;;14.82;12.52;;;;;;;;;;5028328;28;20258;-60
2023/08/09 02:12:56;;;;;;;14.85;12.57;;;;;;;;;;5026680;28;20296;-60
2023/08/09 02:15:21;;;;;;;14.68;12.23;;;;;;;;;;5025847;28;20215;-60
2023/08/09 02:17:48;;;;;;;13.60;12.15;;;;;;;;;;5027940;28;20223;-60
2023/08/09 02:20:14;;;;;;;16.35;12.57;;;;;;;;;;5027500;28;20215;-60
2023/08/09 02:22:39;;;;;;;16.17;13.13;;;;;;;;;;5023724;28;20211;-60
2023/08/09 02:25:06;;;;;;;16.70;13.30;;;;;;;;;;5027603;28;20208;-60
2023/08/09 02:27:32;;;;;;;17.05;13.45;;;;;;;;;;5027644;28;20683;-60
2023/08/09 02:29:57;;;;;;;17.27;14.02;;;;;;;;;;5025130;28;20219;-60
2023/08/09 02:32:23;;;;;;;14.80;11.88;;;;;;;;;;5026875;28;20208;-60
2023/08/09 02:34:48;;;;;;;15.32;13.18;;;;;;;;;;5026996;28;20220;-60
2023/08/09 02:37:13;;;;;;;15.07;12.35;;;;;;;;;;5026422;28;20227;-60
2023/08/09 02:39:39;;;;;;;17.45;13.43;;;;;;;;;;5026336;28;20265;-60
2023/08/09 02:42:04;;;;;;;16.67;13.10;;;;;;;;;;5026605;28;20212;-60
2023/08/09 02:44:32;;;;;;;16.48;12.82;;;;;;;;;;5027641;28;20216;-60
2023/08/09 02:46:57;;;;;;;17.42;12.45;;;;;;;;;;5025232;28;20353;-61
2023/08/09 02:49:23;;;;;;;16.98;13.02;;;;;;;;;;5024493;28;20298;-60
2023/08/09 02:51:48;;;;;;;15.38;13.13;;;;;;;;;;5010218;28;20727;-60
2023/08/09 02:54:13;;;;;;;17.20;13.23;;;;;;;;;;5005555;28;20721;-60
2023/08/09 02:56:39;;;;;;;16.48;13.43;;;;;;;;;;5004586;28;20703;-60
2023/08/09 02:59:04;;;;;;;17.15;12.57;;;;;;;;;;4999290;28;20219;-60
2023/08/09 03:01:30;;;;;;;16.52;13.20;;;;;;;;;;5000387;28;20216;-60
2023/08/09 03:03:55;;;;;;;14.15;11.45;;;;;;;;;;5002979;28;20305;-60
2023/08/09 03:06:22;;;;;;;16.48;12.52;;;;;;;;;;5005379;28;20224;-60
2023/08/09 03:08:47;;;;;;;18.20;14.23;;;;;;;;;;5007525;28;20228;-60
2023/08/09 03:11:13;;;;;;;17.92;13.70;;;;;;;;;;5009128;28;20216;-60
2023/08/09 03:13:38;;;;;;;17.92;13.07;;;;;;;;;;5015389;28;20211;-60
2023/08/09 03:16:04;;;;;;;20.55;12.90;;;;;;;;;;5007506;28;20255;-60
2023/08/09 03:18:29;;;;;;;19.92;13.73;;;;;;;;;;5007386;28;20278;-60
2023/08/09 03:20:54;;;;;;;15.35;12.23;;;;;;;;;;5005986;28;20223;-60
2023/08/09 03:23:19;;;;;;;17.13;12.32;;;;;;;;;;4999603;28;20373;-60
2023/08/09 03:25:45;;;;;;;16.95;13.02;;;;;;;;;;4999792;28;20323;-60
2023/08/09 03:28:10;;;;;;;16.95;12.88;;;;;;;;;;5004907;28;20232;-60
2023/08/09 03:30:36;;;;;;;18.65;13.30;;;;;;;;;;5008972;28;20281;-60
2023/08/09 03:33:01;;;;;;;15.63;12.68;;;;;;;;;;5006836;28;20227;-59
2023/08/09 03:35:26;;;;;;;20.63;14.18;;;;;;;;;;5009060;28;20594;-60
2023/08/09 03:37:51;;;;;;;15.48;12.45;;;;;;;;;;5014984;28;20773;-60
2023/08/09 03:40:17;;;;;;;15.93;12.70;;;;;;;;;;5006942;28;20214;-60
2023/08/09 03:42:42;;;;;;;16.15;12.50;;;;;;;;;;5009410;28;20266;-60
2023/08/09 03:45:08;;;;;;;19.38;12.15;;;;;;;;;;5000230;28;20275;-60
2023/08/09 03:47:33;;;;;;;17.92;12.30;;;;;;;;;;4999866;28;20566;-60
2023/08/09 03:49:59;;;;;;;19.27;12.30;;;;;;;;;;5000201;28;20220;-60
2023/08/09 03:52:24;;;;;;;17.35;11.77;;;;;;;;;;5008913;28;20579;-60
2023/08/09 03:54:52;;;;;;;19.23;12.35;;;;;;;;;;5018467;28;20215;-60
2023/08/09 03:57:18;;;;;;;19.92;13.05;;;;;;;;;;5029333;28;20294;-59
2023/08/09 03:59:43;;;;;;;20.90;13.13;;;;;;;;;;5027365;28;20212;-60
2023/08/09 04:02:08;;;;;;;24.75;12.25;;;;;;;;;;5029007;28;20215;-60
2023/08/09 04:04:34;;;;;;;20.67;12.45;;;;;;;;;;5031331;28;20250;-60
2023/08/09 04:07:00;;;;;;;21.00;12.57;;;;;;;;;;5026606;28;20203;-60
2023/08/09 04:09:26;;;;;;;20.80;12.82;;;;;;;;;;5008945;28;20216;-60
2023/08/09 04:11:52;;;;;;;21.30;13.10;;;;;;;;;;5014407;28;20310;-60
2023/08/09 04:14:17;;;;;;;17.23;11.40;;;;;;;;;;5006666;28;20887;-60
2023/08/09 04:16:42;;;;;;;17.77;12.30;;;;;;;;;;5008601;28;20224;-60
2023/08/09 04:19:08;;;;;;;15.75;10.50;;;;;;;;;;5006349;28;20298;-60
2023/08/09 04:21:33;;;;;;;16.70;9.93;;;;;;;;;;4999742;28;20227;-60
2023/08/09 04:23:59;;;;;;;14.48;9.90;;;;;;;;;;4999229;28;20592;-60
2023/08/09 04:26:24;;;;;;;16.73;10.30;;;;;;;;;;5002493;28;20208;-60
2023/08/09 04:28:49;;;;;;;16.27;10.38;;;;;;;;;;5006989;28;20808;-60
2023/08/09 04:31:15;;;;;;;14.18;9.30;;;;;;;;;;5006764;28;20227;-60
2023/08/09 04:33:40;;;;;;;16.75;9.80;;;;;;;;;;5009136;28;20664;-60
2023/08/09 04:36:05;;;;;;;14.73;9.90;;;;;;;;;;5006722;28;20278;-60
2023/08/09 04:38:31;;;;;;;14.85;9.98;;;;;;;;;;5006745;28;20306;-60
2023/08/09 04:40:57;;;;;;;19.15;10.82;;;;;;;;;;5008422;28;20311;-60
2023/08/09 04:43:22;;;;;;;17.88;10.80;;;;;;;;;;5000624;28;20697;-60
2023/08/09 04:45:47;;;;;;;15.82;9.70;;;;;;;;;;4999779;28;20216;-60
2023/08/09 04:48:19;;;;;;;14.85;10.15;;;;;;;;;;4998448;28;20217;-60
2023/08/09 04:50:44;;;;;;;14.40;9.00;;;;;;;;;;5006977;28;20666;-60
2023/08/09 04:53:09;;;;;;;13.63;8.82;;;;;;;;;;5006790;28;20215;-60
2023/08/09 04:55:35;;;;;;;16.00;10.18;;;;;;;;;;5005193;28;20609;-60
2023/08/09 04:58:00;;;;;;;14.70;10.00;;;;;;;;;;5007053;28;20221;-60
2023/08/09 05:00:25;;;;;;;17.20;10.20;;;;;;;;;;5007652;28;20694;-60
2023/08/09 05:02:51;;;;;;;27.50;10.88;;;;;;;;;;5005752;28;20647;-60
2023/08/09 05:05:16;;;;;;;14.43;10.10;;;;;;;;;;5003038;28;20212;-60
2023/08/09 05:07:41;;;;;;;18.08;10.98;;;;;;;;;;4999178;28;20513;-61
2023/08/09 05:10:08;;;;;;;23.58;10.80;;;;;;;;;;4997076;28;20323;-61
2023/08/09 05:12:34;;;;;;;18.73;9.95;;;;;;;;;;5006044;28;20212;-60
2023/08/09 05:14:59;;;;;;;12.68;9.57;;;;;;;;;;5025250;28;20269;-60
2023/08/09 05:17:24;;;;;;;14.90;11.47;;;;;;;;;;5026081;28;20426;-60
2023/08/09 05:19:50;;;;;;;15.95;10.13;;;;;;;;;;5028400;28;20299;-59
2023/08/09 05:22:15;;;;;;;14.43;9.40;;;;;;;;;;5026394;28;20615;-61
2023/08/09 05:24:40;;;;;;;14.37;11.10;;;;;;;;;;5025565;28;20462;-61
2023/08/09 05:27:06;;;;;;;14.48;9.25;;;;;;;;;;5027750;28;20222;-61
2023/08/09 05:29:31;;;;;;;14.85;8.75;;;;;;;;;;5028163;28;20216;-61
2023/08/09 05:31:56;;;;;;;21.90;10.73;;;;;;;;;;5025175;28;20204;-61
2023/08/09 05:34:21;;;;;;;15.43;9.85;;;;;;;;;;5027661;28;20220;-61
2023/08/09 05:36:47;;;;;;;13.45;10.07;;;;;;;;;;5027791;28;20298;-61
2023/08/09 05:39:12;;;;;;;15.30;10.77;;;;;;;;;;5025042;28;20235;-61
2023/08/09 05:41:38;;;;;;;17.17;11.10;;;;;;;;;;5027570;28;20215;-60
2023/08/09 05:44:03;;;;;;;19.50;10.48;;;;;;;;;;5027463;28;20222;-60
2023/08/09 05:46:29;;;;;;;21.38;13.20;;;;;;;;;;5026160;28;20471;-60
2023/08/09 05:48:55;;;;;;;19.33;12.57;;;;;;;;;;5026612;28;20212;-60
2023/08/09 05:51:20;;;;;;;17.42;11.48;;;;;;;;;;5023221;28;20243;-60
2023/08/09 05:53:46;;;;;;;16.38;11.65;;;;;;;;;;5027037;28;20251;-60
2023/08/09 05:56:11;;;;;;;17.25;12.40;;;;;;;;;;5024936;28;20332;-60
2023/08/09 05:58:36;;;;;;;17.40;12.45;;;;;;;;;;5027230;28;20571;-61
2023/08/09 06:01:04;;;;;;;17.00;11.50;;;;;;;;;;5027149;28;20866;-61
2023/08/09 06:03:29;;;;;;;21.50;12.43;;;;;;;;;;5026913;28;20211;-61
2023/08/09 06:05:55;;;;;;;21.65;12.07;;;;;;;;;;5024114;28;20220;-60
2023/08/09 06:08:20;;;;;;;18.95;12.30;;;;;;;;;;5025869;28;20736;-61
2023/08/09 06:10:46;;;;;;;18.38;12.85;;;;;;;;;;5027210;28;20326;-61
2023/08/09 06:13:11;;;;;;;21.48;13.27;;;;;;;;;;5022711;28;20265;-61
2023/08/09 06:15:36;;;;;;;19.70;12.55;;;;;;;;;;5027963;28;20567;-61
2023/08/09 06:18:02;;;;;;;22.90;13.18;;;;;;;;;;5027744;28;20235;-60
2023/08/09 06:20:27;;;;;;;22.95;13.85;;;;;;;;;;5023628;28;20219;-61
2023/08/09 06:22:53;;;;;;;20.75;13.18;;;;;;;;;;5025275;28;20223;-61
2023/08/09 06:25:19;;;;;;;18.67;13.40;;;;;;;;;;5027420;28;20576;-61
2023/08/09 06:27:44;;;;;;;23.20;13.50;;;;;;;;;;5026257;28;20338;-61
2023/08/09 06:30:10;;;;;;;22.35;14.38;;;;;;;;;;5026469;28;20240;-61
2023/08/09 06:32:35;;;;;;;19.75;13.35;;;;;;;;;;5027742;28;20219;-61
2023/08/09 06:35:01;;;;;;;20.00;12.82;;;;;;;;;;5027133;28;20273;-61
2023/08/09 06:37:26;;;;;;;32.55;14.57;;;;;;;;;;5028954;28;20298;-61
2023/08/09 06:39:51;;;;;;;24.45;15.35;;;;;;;;;;5031824;28;20224;-61
2023/08/09 06:42:17;;;;;;;23.08;15.80;;;;;;;;;;5030642;28;20683;-61
2023/08/09 06:44:42;;;;;;;27.55;17.95;;;;;;;;;;5029729;28;20331;-60
2023/08/09 06:47:07;;;;;;;35.95;16.65;;;;;;;;;;5030468;28;20215;-61
2023/08/09 06:49:33;;;;;;;28.20;17.90;;;;;;;;;;5029316;28;20212;-60
2023/08/09 06:52:00;;;;;;;28.85;17.90;;;;;;;;;;5029999;28;20235;-60
2023/08/09 06:54:26;;;;;;;28.38;18.27;;;;;;;;;;5032136;28;20237;-60
2023/08/09 06:56:51;;;;;;;26.75;17.45;;;;;;;;;;5035028;28;20746;-61
2023/08/09 06:59:16;;;;;;;25.05;17.33;;;;;;;;;;5030678;28;20215;-60
2023/08/09 07:01:43;;;;;;;23.02;16.15;;;;;;;;;;5025376;28;20224;-61
2023/08/09 07:04:09;;;;;;;29.05;18.10;;;;;;;;;;5028706;28;20218;-61
2023/08/09 07:06:35;;;;;;;26.33;16.02;;;;;;;;;;5031069;28;20216;-61
2023/08/09 07:09:00;;;;;;;23.95;15.77;;;;;;;;;;5027213;28;20678;-60
2023/08/09 07:11:26;;;;;;;22.50;13.98;;;;;;;;;;5028033;28;20277;-61
2023/08/09 07:13:51;;;;;;;20.05;13.63;;;;;;;;;;5030022;28;20601;-61
2023/08/09 07:16:16;;;;;;;16.33;11.35;;;;;;;;;;5027383;28;20212;-60
2023/08/09 07:18:42;;;;;;;14.05;10.52;;;;;;;;;;5028110;28;20310;-60
2023/08/09 07:21:07;;;;;;;15.95;9.55;;;;;;;;;;5028950;28;20266;-60
2023/08/09 07:23:33;;;;;;;16.08;9.88;;;;;;;;;;5028531;28;20207;-60
2023/08/09 07:25:58;;;;;;;15.00;9.40;;;;;;;;;;5027319;28;20220;-60
2023/08/09 07:28:24;;;;;;;15.13;9.52;;;;;;;;;;5029061;28;20203;-60
2023/08/09 07:30:50;;;;;;;15.40;8.95;;;;;;;;;;5028538;28;20623;-60
2023/08/09 07:33:15;;;;;;;14.95;9.48;;;;;;;;;;5027697;28;20655;-60
2023/08/09 07:35:40;;;;;;;14.98;9.95;;;;;;;;;;5027802;28;20339;-60
2023/08/09 07:38:06;;;;;;;13.00;8.98;;;;;;;;;;5028068;28;20261;-60
2023/08/09 07:40:31;;;;;;;22.45;9.40;;;;;;;;;;5027795;28;20236;-60
2023/08/09 07:42:58;;;;;;;26.80;10.90;;;;;;;;;;5028426;28;20695;-60
2023/08/09 07:45:24;;;;;;;17.48;9.27;;;;;;;;;;5022088;28;20215;-60
2023/08/09 07:47:49;;;;;;;21.73;8.40;;;;;;;;;;5028862;28;20227;-60
2023/08/09 07:50:14;;;;;;;30.20;9.05;;;;;;;;;;5027278;28;20219;-60
2023/08/09 07:52:40;;;;;;;18.35;7.88;;;;;;;;;;5028436;28;20369;-60
2023/08/09 07:55:05;;;;;;;15.00;7.90;;;;;;;;;;5028957;28;20568;-60
2023/08/09 07:57:31;;;;;;;13.40;7.72;;;;;;;;;;5028310;28;20230;-60
2023/08/09 07:59:56;;;;;;;15.50;7.28;;;;;;;;;;5027744;28;20200;-59
2023/08/09 08:02:21;;;;;;;10.57;6.90;;;;;;;;;;5029534;28;20373;-59
2023/08/09 08:04:47;;;;;;;11.02;6.82;;;;;;;;;;5029948;28;20226;-59
2023/08/09 08:07:13;;;;;;;9.68;6.25;;;;;;;;;;5026275;28;20218;-60
2023/08/09 08:09:41;;;;;;;9.88;6.35;;;;;;;;;;5029996;28;20227;-59
2023/08/09 08:12:07;;;;;;;10.02;6.20;;;;;;;;;;5029482;28;20208;-59
2023/08/09 08:14:32;;;;;;;10.85;7.38;;;;;;;;;;5027642;28;20211;-59
2023/08/09 08:16:57;;;;;;;9.73;6.10;;;;;;;;;;5029128;28;20224;-59
2023/08/09 08:19:22;;;;;;;10.43;6.90;;;;;;;;;;5029243;28;20450;-59
2023/08/09 08:21:48;;;;;;;10.70;6.72;;;;;;;;;;5028375;28;20220;-59
2023/08/09 08:24:14;;;;;;;11.90;6.78;;;;;;;;;;5027282;28;20222;-59
2023/08/09 08:26:39;;;;;;;9.63;6.40;;;;;;;;;;5027631;28;20833;-59
2023/08/09 08:29:04;;;;;;;9.68;6.07;;;;;;;;;;5028748;28;20673;-59
2023/08/09 08:31:30;;;;;;;12.52;6.53;;;;;;;;;;5027338;28;20211;-59
2023/08/09 08:33:55;;;;;;;8.73;6.25;;;;;;;;;;5028746;28;20208;-59
2023/08/09 08:36:22;;;;;;;10.55;7.50;;;;;;;;;;5028747;28;20227;-59
2023/08/09 08:38:48;;;;;;;12.48;7.25;;;;;;;;;;5027711;28;20307;-59
2023/08/09 08:41:13;;;;;;;10.80;6.90;;;;;;;;;;5026970;28;20298;-59
2023/08/09 08:43:38;;;;;;;9.38;6.15;;;;;;;;;;5028898;28;20211;-59
2023/08/09 08:46:05;;;;;;;8.52;5.85;;;;;;;;;;5028437;28;20683;-59
2023/08/09 08:48:32;;;;;;;10.15;5.72;;;;;;;;;;5026260;28;20208;-59
2023/08/09 08:50:57;;;;;;;9.85;6.70;;;;;;;;;;5029173;28;20216;-59
2023/08/09 08:53:23;;;;;;;9.80;6.20;;;;;;;;;;5026895;28;20290;-59
2023/08/09 08:55:48;;;;;;;11.13;5.60;;;;;;;;;;5026117;28;20285;-59
2023/08/09 08:58:14;;;;;;;11.82;6.07;;;;;;;;;;5026030;28;20265;-59
2023/08/09 09:00:40;;;;;;;10.15;6.63;;;;;;;;;;5029150;28;20266;-60
2023/08/09 09:03:05;;;;;;;10.38;7.05;;;;;;;;;;5026811;28;20207;-60
2023/08/09 09:05:30;;;;;;;10.18;6.43;;;;;;;;;;5027504;28;20234;-59
2023/08/09 09:07:57;;;;;;;9.45;5.88;;;;;;;;;;5028747;28;20220;-59
2023/08/09 09:10:22;;;;;;;10.35;5.20;;;;;;;;;;5026957;28;20380;-59
2023/08/09 09:12:49;;;;;;;9.50;5.38;;;;;;;;;;5026301;28;21038;-59
2023/08/09 09:15:15;;;;;;;6.25;4.85;;;;;;;;;;5028174;28;20261;-59
2023/08/09 09:17:41;;;;;;;7.13;4.38;;;;;;;;;;5026078;28;20224;-60
2023/08/09 09:20:13;;;;;;;6.25;4.10;;;;;;;;;;5026115;28;20628;-59
2023/08/09 09:22:38;;;;;;;6.30;4.30;;;;;;;;;;5027791;28;20231;-59
2023/08/09 09:25:07;;;;;;;7.50;3.88;;;;;;;;;;5025114;28;20698;-59
2023/08/09 09:27:33;;;;;;;7.15;3.70;;;;;;;;;;5028373;28;20238;-59
2023/08/09 09:30:01;;;;;;;7.00;3.78;;;;;;;;;;5025573;28;20208;-60
2023/08/09 09:32:26;;;;;;;5.32;3.13;;;;;;;;;;5027663;28;20207;-59
2023/08/09 09:34:51;;;;;;;8.23;2.80;;;;;;;;;;5028645;28;20573;-59
2023/08/09 09:37:21;;;;;;;4.85;3.05;;;;;;;;;;5024945;28;20628;-59
2023/08/09 09:39:47;;;;;;;4.85;2.85;;;;;;;;;;5025690;28;20770;-59
2023/08/09 09:42:13;;;;;;;5.75;3.30;;;;;;;;;;5027801;28;20208;-59
2023/08/09 09:44:38;;;;;;;5.68;2.80;;;;;;;;;;5026743;28;20219;-59
2023/08/09 09:47:04;;;;;;;5.20;3.30;;;;;;;;;;5024810;28;20215;-60
2023/08/09 09:49:34;;;;;;;7.20;2.90;;;;;;;;;;5028338;28;20705;-60
2023/08/09 09:52:00;;;;;;;5.65;2.97;;;;;;;;;;5027511;28;20307;-59
2023/08/09 09:54:25;;;;;;;4.85;2.80;;;;;;;;;;5030603;28;20303;-59
2023/08/09 09:56:50;;;;;;;8.73;3.70;;;;;;;;;;5024277;28;21398;-59
2023/08/09 09:59:16;;;;;;;5.55;3.90;;;;;;;;;;5027357;28;20299;-59
2023/08/09 10:01:42;;;;;;;5.78;3.30;;;;;;;;;;5028278;28;20226;-59
2023/08/09 10:04:08;;;;;;;6.53;3.47;;;;;;;;;;5025411;28;20814;-59
2023/08/09 10:06:35;;;;;;;5.82;3.40;;;;;;;;;;5027586;28;20358;-59
2023/08/09 10:09:01;;;;;;;8.20;4.22;;;;;;;;;;5028669;28;20212;-59
2023/08/09 10:11:28;;;;;;;8.35;3.80;;;;;;;;;;5027444;28;20315;-59
2023/08/09 10:13:54;;;;;;;9.65;4.07;;;;;;;;;;5028028;28;20211;-59
2023/08/09 10:16:20;;;;;;;7.85;4.10;;;;;;;;;;5029825;28;20222;-59
2023/08/09 10:18:47;;;;;;;7.38;3.50;;;;;;;;;;5029961;28;20219;-59
2023/08/09 10:21:14;;;;;;;5.63;3.13;;;;;;;;;;5027225;28;20224;-59
2023/08/09 10:23:39;;;;;;;5.00;2.70;;;;;;;;;;5032208;28;20667;-59
2023/08/09 10:26:04;;;;;;;10.00;2.78;;;;;;;;;;5030378;28;20226;-59
2023/08/09 10:28:49;;;;;;;5.07;2.78;;;;;;;;;;5028655;28;20208;-59
2023/08/09 10:31:15;;;;;;;5.10;2.67;;;;;;;;;;5026016;28;20214;-59
2023/08/09 10:33:41;;;;;;;5.40;2.97;;;;;;;;;;5031405;28;20290;-59
2023/08/09 10:36:07;;;;;;;4.82;2.72;;;;;;;;;;5031051;28;20240;-59
2023/08/09 10:38:32;;;;;;;5.90;2.63;;;;;;;;;;5027691;28;20227;-59
2023/08/09 10:40:58;;;;;;;4.30;2.67;;;;;;;;;;5030549;28;20269;-59
2023/08/09 10:43:24;;;;;;;7.10;2.70;;;;;;;;;;5030617;28;20216;-59
2023/08/09 10:45:49;;;;;;;6.40;3.35;;;;;;;;;;5029940;28;20219;-59
2023/08/09 10:48:15;;;;;;;7.13;2.78;;;;;;;;;;5029312;28;20701;-59
2023/08/09 10:50:40;;;;;;;6.53;2.88;;;;;;;;;;5030219;28;20704;-59
2023/08/09 10:53:06;;;;;;;5.00;2.75;;;;;;;;;;5030031;28;20230;-60
2023/08/09 10:55:32;;;;;;;5.30;2.60;;;;;;;;;;5028264;28;20215;-59
2023/08/09 10:57:57;;;;;;;5.82;2.55;;;;;;;;;;5031090;28;20366;-60
2023/08/09 11:00:23;;;;;;;4.50;2.13;;;;;;;;;;5030838;28;20242;-59
2023/08/09 11:02:50;;;;;;;4.60;2.25;;;;;;;;;;5028150;28;20575;-59
2023/08/09 11:05:17;;;;;;;6.25;2.15;;;;;;;;;;5030228;28;20730;-59
2023/08/09 11:07:43;;;;;;;9.15;2.40;;;;;;;;;;5031258;28;20224;-59
2023/08/09 11:10:08;;;;;;;4.80;2.30;;;;;;;;;;5028033;28;20274;-59
2023/08/09 11:12:34;;;;;;;4.53;1.92;;;;;;;;;;5029936;28;20207;-59
2023/08/09 11:14:59;;;;;;;5.63;2.70;;;;;;;;;;5031084;28;20350;-59
2023/08/09 11:17:24;;;;;;;10.45;2.90;;;;;;;;;;5029273;28;20224;-59
2023/08/09 11:19:50;;;;;;;6.63;3.05;;;;;;;;;;5028904;28;20243;-59
2023/08/09 11:22:16;;;;;;;5.20;2.60;;;;;;;;;;5029334;28;20231;-59
2023/08/09 11:24:41;;;;;;;7.45;2.80;;;;;;;;;;5029662;28;20266;-59
2023/08/09 11:27:07;;;;;;;5.72;3.30;;;;;;;;;;5028262;28;20576;-59
2023/08/09 11:29:32;;;;;;;6.30;2.72;;;;;;;;;;5029329;28;20555;-59
2023/08/09 11:31:58;;;;;;;7.82;2.60;;;;;;;;;;5030497;28;20214;-59
2023/08/09 11:34:23;;;;;;;5.47;2.70;;;;;;;;;;5028876;28;20254;-59
2023/08/09 11:36:49;;;;;;;7.72;3.00;;;;;;;;;;5026799;28;20231;-59
2023/08/09 11:39:15;;;;;;;5.53;2.97;;;;;;;;;;5029642;28;20246;-59
2023/08/09 11:41:42;;;;;;;7.68;2.85;;;;;;;;;;5030300;28;20208;-58
2023/08/09 11:44:07;;;;;;;5.22;3.28;;;;;;;;;;5026407;28;20216;-59
2023/08/09 11:46:32;;;;;;;5.00;3.15;;;;;;;;;;5030367;28;20269;-59
2023/08/09 11:49:01;;;;;;;6.75;2.92;;;;;;;;;;5030409;28;20253;-59
2023/08/09 11:51:26;;;;;;;4.32;2.80;;;;;;;;;;5027957;28;20291;-59
2023/08/09 11:53:52;;;;;;;10.05;3.35;;;;;;;;;;5027542;28;20770;-59
2023/08/09 11:56:19;;;;;;;4.95;2.75;;;;;;;;;;5029172;28;20220;-59
2023/08/09 11:58:46;;;;;;;7.97;4.18;;;;;;;;;;5028226;28;20295;-59
2023/08/09 12:01:16;;;;;;;10.38;3.80;;;;;;;;;;5027301;28;20295;-59
2023/08/09 12:03:42;;;;;;;8.57;4.32;;;;;;;;;;5029771;28;20215;-59
2023/08/09 12:06:08;;;;;;;7.68;3.80;;;;;;;;;;5028779;28;20215;-59
2023/08/09 12:08:34;;;;;;;7.32;4.20;;;;;;;;;;5027400;28;20200;-59
2023/08/09 12:10:59;;;;;;;7.15;4.55;;;;;;;;;;5029315;28;20211;-59
2023/08/09 12:13:25;;;;;;;7.10;4.30;;;;;;;;;;5028232;28;20675;-59
2023/08/09 12:15:50;;;;;;;8.07;4.50;;;;;;;;;;5028796;28;20679;-59
2023/08/09 12:18:16;;;;;;;8.90;4.63;;;;;;;;;;5027877;28;20234;-59
2023/08/09 12:20:41;;;;;;;9.30;3.92;;;;;;;;;;5028873;28;20235;-59
2023/08/09 12:23:06;;;;;;;7.18;3.17;;;;;;;;;;5029354;28;20204;-59
2023/08/09 12:25:32;;;;;;;5.82;3.03;;;;;;;;;;5026785;28;20706;-59
2023/08/09 12:27:58;;;;;;;5.60;3.20;;;;;;;;;;5028866;28;20675;-59
2023/08/09 12:30:24;;;;;;;6.88;2.95;;;;;;;;;;5029010;28;20664;-59
2023/08/09 12:32:49;;;;;;;7.10;3.22;;;;;;;;;;5027080;28;20211;-59
2023/08/09 12:35:14;;;;;;;8.40;3.22;;;;;;;;;;5027887;28;20697;-59
2023/08/09 12:37:40;;;;;;;7.03;2.47;;;;;;;;;;5028556;28;20224;-59
2023/08/09 12:40:07;;;;;;;6.72;2.50;;;;;;;;;;5027299;28;20216;-59
2023/08/09 12:42:32;;;;;;;4.38;2.42;;;;;;;;;;5027277;28;20235;-59
2023/08/09 12:44:57;;;;;;;7.63;2.30;;;;;;;;;;5029404;28;20671;-59
2023/08/09 12:47:23;;;;;;;3.83;2.00;;;;;;;;;;5027669;28;20220;-59
2023/08/09 12:49:49;;;;;;;6.13;2.58;;;;;;;;;;5026873;28;20239;-59
2023/08/09 12:52:14;;;;;;;3.60;2.00;;;;;;;;;;5028384;28;20583;-59
2023/08/09 12:54:39;;;;;;;5.15;2.22;;;;;;;;;;5027912;28;20220;-59
2023/08/09 12:57:05;;;;;;;7.45;2.15;;;;;;;;;;5027304;28;20232;-59
2023/08/09 12:59:30;;;;;;;4.68;2.10;;;;;;;;;;5027813;28;20278;-59
2023/08/09 13:01:55;;;;;;;4.60;2.05;;;;;;;;;;5028183;28;20212;-59
2023/08/09 13:04:23;;;;;;;3.35;2.00;;;;;;;;;;5028141;28;20208;-59
2023/08/09 13:06:49;;;;;;;3.70;1.90;;;;;;;;;;5026602;28;20572;-59
2023/08/09 13:09:14;;;;;;;5.55;1.95;;;;;;;;;;5026974;28;20218;-59
2023/08/09 13:11:40;;;;;;;2.92;1.60;;;;;;;;;;5029052;28;20241;-59
2023/08/09 13:14:05;;;;;;;3.75;1.70;;;;;;;;;;5025567;28;20573;-59
2023/08/09 13:16:31;;;;;;;4.00;1.60;;;;;;;;;;5025563;28;20215;-59
2023/08/09 13:18:57;;;;;;;3.20;1.60;;;;;;;;;;5028160;28;20230;-60
2023/08/09 13:21:22;;;;;;;2.90;1.40;;;;;;;;;;5027140;28;20237;-59
2023/08/09 13:23:47;;;;;;;2.42;1.33;;;;;;;;;;5025914;28;20579;-60
2023/08/09 13:26:13;;;;;;;5.35;1.45;;;;;;;;;;5028284;28;20212;-59
2023/08/09 13:28:38;;;;;;;3.13;1.38;;;;;;;;;;5028571;28;20219;-59
2023/08/09 13:31:04;;;;;;;2.35;1.40;;;;;;;;;;5022888;28;20216;-60
2023/08/09 13:33:29;;;;;;;4.40;1.30;;;;;;;;;;5010050;28;20724;-59
2023/08/09 13:35:54;;;;;;;4.15;1.33;;;;;;;;;;5001683;28;20247;-59
2023/08/09 13:38:24;;;;;;;3.83;1.30;;;;;;;;;;5002695;28;20265;-59
2023/08/09 13:40:49;;;;;;;5.00;1.30;;;;;;;;;;5012694;28;20219;-59
2023/08/09 13:43:15;;;;;;;3.28;1.20;;;;;;;;;;5008789;28;20631;-59
2023/08/09 13:45:40;;;;;;;5.70;1.70;;;;;;;;;;5011539;28;20791;-59
2023/08/09 13:48:05;;;;;;;4.80;1.05;;;;;;;;;;5010583;28;20220;-59
2023/08/09 13:50:31;;;;;;;4.40;1.20;;;;;;;;;;5009611;28;20213;-60
2023/08/09 13:52:56;;;;;;;5.30;1.23;;;;;;;;;;5009446;28;20751;-59
2023/08/09 13:55:21;;;;;;;3.55;1.23;;;;;;;;;;5009405;28;20216;-59
2023/08/09 13:57:47;;;;;;;2.95;1.30;;;;;;;;;;5001877;28;20693;-60
2023/08/09 14:00:14;;;;;;;6.13;1.63;;;;;;;;;;5002304;28;20219;-59
2023/08/09 14:02:40;;;;;;;3.03;1.33;;;;;;;;;;5006645;28;20220;-59
2023/08/09 14:05:06;;;;;;;3.80;1.02;;;;;;;;;;5010310;28;20219;-60
2023/08/09 14:07:31;;;;;;;4.90;1.40;;;;;;;;;;5011721;28;20636;-60
2023/08/09 14:09:56;;;;;;;3.50;1.38;;;;;;;;;;5009837;28;20252;-60
2023/08/09 14:12:21;;;;;;;8.80;1.55;;;;;;;;;;5011749;28;20231;-59
2023/08/09 14:14:47;;;;;;;6.25;1.30;;;;;;;;;;5010429;28;20290;-59
2023/08/09 14:17:12;;;;;;;4.68;1.30;;;;;;;;;;5009740;28;20711;-59
2023/08/09 14:19:37;;;;;;;3.83;1.10;;;;;;;;;;5003851;28;20204;-59
2023/08/09 14:22:03;;;;;;;3.13;1.13;;;;;;;;;;5001653;28;20861;-60